Time;durP1;ratioP1;P1;durP2;ratioP2;P2;SDS_P1;SDS_P2;PMS_P1;PMS_P2;Temp;Humidity;BMP_temperature;BMP_pressure;BME280_temperature;BME280_humidity;BME280_pressure;Samples;Min_cycle;Max_cycle;Signal;HPM_P1;HPM_P2
2023/10/06 00:00:42;;;;;;;;;;;;;;;15.74;63.30;99998.31;5010409;28;19918;-74
2023/10/06 00:03:10;;;;;;;;;;;;;;;15.55;64.10;99991.31;5009068;28;20029;-73
2023/10/06 00:05:56;;;;;;;;;;;;;;;15.50;63.74;99990.72;5012549;28;19961;-73
2023/10/06 00:08:22;;;;;;;;;;;;;;;15.74;62.87;99987.03;5008239;28;19965;-73
2023/10/06 00:10:53;;;;;;;;;;;;;;;15.78;62.67;99985.13;5016545;28;20284;-73
2023/10/06 00:13:19;;;;;;;;;;;;;;;15.82;62.56;99988.88;5012724;28;20362;-74
2023/10/06 00:15:45;;;;;;;;;;;;;;;15.82;62.87;99977.59;5009719;28;19918;-73
2023/10/06 00:18:16;;;;;;;;;;;;;;;15.86;62.36;99981.34;5011717;28;19918;-73
2023/10/06 00:20:46;;;;;;;;;;;;;;;15.80;62.39;99988.41;5012303;28;19917;-74
2023/10/06 00:23:15;;;;;;;;;;;;;;;15.89;61.98;99993.09;5011501;28;19922;-73
2023/10/06 00:25:43;;;;;;;;;;;;;;;15.76;62.05;99997.97;5029418;28;19917;-73
2023/10/06 00:28:26;;;;;;;;;;;;;;;15.63;62.81;99997.16;5009628;28;20012;-73
2023/10/06 00:30:58;;;;;;;;;;;;;;;15.29;64.38;99997.38;5003640;28;19921;-74
2023/10/06 00:33:27;;;;;;;;;;;;;;;15.05;66.26;99990.56;5013675;28;20019;-73
2023/10/06 00:35:52;;;;;;;;;;;;;;;14.98;66.35;99985.53;5013107;28;19953;-73
2023/10/06 00:38:17;;;;;;;;;;;;;;;15.15;65.88;99986.44;5013405;28;19949;-73
2023/10/06 00:40:51;;;;;;;;;;;;;;;15.11;65.67;99994.78;5013447;28;19917;-74
2023/10/06 00:43:27;;;;;;;;;;;;;;;15.13;65.69;99989.59;5014200;28;20408;-74
2023/10/06 00:45:53;;;;;;;;;;;;;;;14.90;66.70;99986.47;5011730;28;19924;-73
2023/10/06 00:48:19;;;;;;;;;;;;;;;14.59;67.61;99990.63;5012428;28;19917;-73
2023/10/06 00:50:44;;;;;;;;;;;;;;;14.65;67.47;99991.22;5013119;28;19924;-73
2023/10/06 00:53:10;;;;;;;;;;;;;;;14.53;67.92;99986.41;5014009;28;19917;-73
2023/10/06 00:55:40;;;;;;;;;;;;;;;14.61;67.93;99988.31;5013972;28;19980;-74
2023/10/06 00:58:11;;;;;;;;;;;;;;;14.52;68.46;99988.38;5012644;28;19971;-73
2023/10/06 01:00:37;;;;;;;;;;;;;;;14.80;67.69;99984.09;5006932;28;20462;-73
2023/10/06 01:03:10;;;;;;;;;;;;;;;14.96;67.09;99982.25;5013533;28;19945;-73
2023/10/06 01:05:35;;;;;;;;;;;;;;;14.98;67.19;99987.50;5013383;28;20004;-73
2023/10/06 01:08:05;;;;;;;;;;;;;;;14.97;67.45;99989.53;5013442;28;19963;-73
2023/10/06 01:10:34;;;;;;;;;;;;;;;15.03;67.14;99987.28;5013495;28;19996;-73
2023/10/06 01:13:11;;;;;;;;;;;;;;;15.16;67.04;99985.28;5012191;28;20279;-73
2023/10/06 01:15:36;;;;;;;;;;;;;;;15.27;66.57;99983.63;5011276;28;19964;-73
2023/10/06 01:18:06;;;;;;;;;;;;;;;15.31;66.51;99983.72;5012220;28;19913;-73
2023/10/06 01:20:40;;;;;;;;;;;;;;;15.43;65.87;99978.06;5013181;28;20016;-74
2023/10/06 01:23:16;;;;;;;;;;;;;;;15.44;65.95;99987.34;5008690;28;19980;-74
2023/10/06 01:25:42;;;;;;;;;;;;;;;15.51;65.76;99969.84;4997522;28;19967;-74
2023/10/06 01:28:12;;;;;;;;;;;;;;;15.48;65.67;99977.00;5013213;28;19917;-73
2023/10/06 01:30:37;;;;;;;;;;;;;;;15.52;65.45;99980.75;5001294;28;20429;-74
2023/10/06 01:33:04;;;;;;;;;;;;;;;15.48;65.78;99982.66;5011033;28;19949;-73
2023/10/06 01:35:33;;;;;;;;;;;;;;;15.32;66.58;99984.53;5013156;28;19960;-74
2023/10/06 01:38:00;;;;;;;;;;;;;;;15.17;67.16;99981.28;5011840;28;19921;-74
2023/10/06 01:42:54;;;;;;;;;;;;;;;15.16;66.84;99976.81;5012766;28;19926;-73
2023/10/06 01:45:21;;;;;;;;;;;;;;;15.18;66.86;99977.28;5011173;28;19982;-74
2023/10/06 01:48:22;;;;;;;;;;;;;;;15.19;67.43;99986.56;5012796;28;20427;-74
2023/10/06 01:50:41;;;;;;;;;;;;;;;15.10;67.18;99981.88;5011416;28;20268;-73
2023/10/06 01:53:07;;;;;;;;;;;;;;;14.61;69.81;99993.94;5012814;28;20004;-73
2023/10/06 01:55:37;;;;;;;;;;;;;;;14.73;69.76;99995.97;5028016;28;19933;-74
2023/10/06 01:58:04;;;;;;;;;;;;;;;14.72;69.82;99997.97;5012426;28;20423;-73
2023/10/06 02:00:33;;;;;;;;;;;;;;;14.39;71.14;100000.78;5012139;28;20000;-73
2023/10/06 02:02:58;;;;;;;;;;;;;;;14.04;73.22;99999.97;5011552;28;19929;-73
2023/10/06 02:05:24;;;;;;;;;;;;;;;13.82;74.23;99989.94;5012564;28;19929;-73
2023/10/06 02:07:49;;;;;;;;;;;;;;;13.52;75.21;99989.19;5012447;28;20450;-74
2023/10/06 02:10:15;;;;;;;;;;;;;;;13.29;75.30;99989.50;5012108;28;19921;-74
2023/10/06 02:12:41;;;;;;;;;;;;;;;13.14;75.36;99988.09;5012514;28;20398;-73
2023/10/06 02:15:10;;;;;;;;;;;;;;;13.03;75.29;99987.66;5011176;28;19933;-73
2023/10/06 02:17:42;;;;;;;;;;;;;;;13.01;75.25;99993.63;5011042;28;19945;-74
2023/10/06 02:20:28;;;;;;;;;;;;;;;13.09;75.19;99991.91;5012244;28;19921;-73
2023/10/06 02:23:00;;;;;;;;;;;;;;;13.18;74.47;99992.69;5012045;28;19921;-73
2023/10/06 02:25:26;;;;;;;;;;;;;;;13.14;74.64;99996.50;5011187;28;19924;-73
2023/10/06 02:27:52;;;;;;;;;;;;;;;13.09;75.26;99994.72;5011713;28;19918;-74
2023/10/06 02:30:20;;;;;;;;;;;;;;;13.16;75.27;100003.44;5011173;28;20015;-73
2023/10/06 02:32:45;;;;;;;;;;;;;;;13.17;75.27;99998.66;5011467;28;19921;-73
2023/10/06 02:35:12;;;;;;;;;;;;;;;13.18;75.16;100003.94;5012345;28;19917;-74
2023/10/06 02:37:38;;;;;;;;;;;;;;;13.04;75.86;99998.56;5012013;28;20563;-73
2023/10/06 02:40:11;;;;;;;;;;;;;;;13.10;75.84;100009.59;5007214;28;19924;-73
2023/10/06 02:42:41;;;;;;;;;;;;;;;13.06;76.29;100001.03;4992531;28;20435;-74
2023/10/06 02:45:06;;;;;;;;;;;;;;;13.11;76.74;100005.63;5006440;28;19925;-74
2023/10/06 02:47:32;;;;;;;;;;;;;;;13.14;76.22;100002.13;5011899;28;19918;-73
2023/10/06 02:49:59;;;;;;;;;;;;;;;13.18;76.22;100001.13;5007128;28;20384;-73
2023/10/06 02:52:30;;;;;;;;;;;;;;;13.16;76.35;99989.41;4992411;28;20016;-73
2023/10/06 02:55:04;;;;;;;;;;;;;;;13.14;76.86;99993.72;4995229;28;20004;-73
2023/10/06 02:57:50;;;;;;;;;;;;;;;13.31;75.74;99990.81;5011947;28;20315;-74
2023/10/06 03:02:57;;;;;;;;;;;;;;;13.25;76.29;99975.28;5011858;28;19928;-74
2023/10/06 03:05:32;;;;;;;;;;;;;;;13.44;75.83;99985.28;5011768;28;20343;-74
2023/10/06 03:07:58;;;;;;;;;;;;;;;13.58;75.02;99982.22;5011914;28;19913;-74
2023/10/06 03:10:29;;;;;;;;;;;;;;;13.55;75.12;99992.16;5011279;28;19971;-73
2023/10/06 03:12:57;;;;;;;;;;;;;;;13.60;75.20;99991.13;5011122;28;20451;-73
2023/10/06 03:15:35;;;;;;;;;;;;;;;13.63;75.30;99990.44;5010244;28;19917;-73
2023/10/06 03:18:01;;;;;;;;;;;;;;;13.74;74.90;99991.66;5010401;28;19921;-73
2023/10/06 03:20:30;;;;;;;;;;;;;;;13.54;75.52;99987.69;5011178;28;19921;-74
2023/10/06 03:22:56;;;;;;;;;;;;;;;13.56;75.81;99992.97;5010255;28;19961;-74
2023/10/06 03:25:22;;;;;;;;;;;;;;;13.67;74.89;99984.94;5026401;28;19959;-74
2023/10/06 03:27:54;;;;;;;;;;;;;;;13.48;75.41;99986.25;5010185;28;19924;-73
2023/10/06 03:30:33;;;;;;;;;;;;;;;13.67;75.23;99987.75;5011358;28;19924;-73
2023/10/06 03:32:59;;;;;;;;;;;;;;;13.44;75.18;99986.09;5011533;28;19917;-73
2023/10/06 03:35:35;;;;;;;;;;;;;;;13.23;76.05;99982.44;5011078;28;19933;-73
2023/10/06 03:40:46;;;;;;;;;;;;;;;12.92;77.66;99990.06;5010972;28;20308;-74
2023/10/06 03:43:14;;;;;;;;;;;;;;;12.99;77.47;99993.13;5010602;28;19940;-74
2023/10/06 03:45:40;;;;;;;;;;;;;;;13.00;77.77;99991.16;5010156;28;19921;-74
2023/10/06 03:48:10;;;;;;;;;;;;;;;12.99;77.49;99983.91;5010823;28;19917;-74
2023/10/06 03:50:39;;;;;;;;;;;;;;;13.11;77.16;99978.38;5008377;28;19928;-73
2023/10/06 03:53:08;;;;;;;;;;;;;;;13.10;76.76;99985.16;5010981;28;19914;-74
2023/10/06 03:55:45;;;;;;;;;;;;;;;12.91;76.68;99989.22;5011349;28;19960;-74
2023/10/06 03:58:11;;;;;;;;;;;;;;;12.85;76.94;99995.38;5009989;28;19913;-73
2023/10/06 04:00:40;;;;;;;;;;;;;;;12.85;76.75;99995.38;5011267;28;20324;-73
2023/10/06 04:03:17;;;;;;;;;;;;;;;12.85;76.74;100001.81;5011337;28;20068;-74
2023/10/06 04:05:44;;;;;;;;;;;;;;;12.71;76.69;99995.59;5009175;28;19914;-73
2023/10/06 04:08:16;;;;;;;;;;;;;;;12.64;77.54;99999.75;4995435;28;19925;-74
2023/10/06 04:10:57;;;;;;;;;;;;;;;12.54;78.65;100002.06;4998662;28;19914;-73
2023/10/06 04:13:23;;;;;;;;;;;;;;;12.51;78.70;100012.00;5009216;28;19929;-73
2023/10/06 04:15:56;;;;;;;;;;;;;;;12.39;79.66;100012.69;5011151;28;20377;-73
2023/10/06 04:18:23;;;;;;;;;;;;;;;12.62;77.69;100016.09;5011200;28;19975;-73
2023/10/06 04:20:52;;;;;;;;;;;;;;;12.61;77.65;100011.66;5010738;28;20403;-73
2023/10/06 04:23:18;;;;;;;;;;;;;;;12.58;77.42;100009.50;5008606;28;19921;-74
2023/10/06 04:25:44;;;;;;;;;;;;;;;12.70;77.36;100010.78;5012146;28;19984;-73
2023/10/06 04:28:14;;;;;;;;;;;;;;;12.65;77.24;100020.19;5013265;28;19913;-73
2023/10/06 04:30:42;;;;;;;;;;;;;;;12.68;77.25;100024.31;5012481;28;20311;-74
2023/10/06 04:33:09;;;;;;;;;;;;;;;12.43;78.03;100038.09;5014538;28;19913;-73
2023/10/06 04:35:35;;;;;;;;;;;;;;;12.45;78.31;100038.59;5013106;28;19957;-73
2023/10/06 04:38:01;;;;;;;;;;;;;;;12.39;78.21;100042.75;5013862;28;19960;-73
2023/10/06 04:40:27;;;;;;;;;;;;;;;12.49;77.74;100033.97;5003107;28;19925;-73
2023/10/06 04:42:52;;;;;;;;;;;;;;;12.66;77.58;100043.50;5012477;28;20403;-73
2023/10/06 04:45:18;;;;;;;;;;;;;;;12.55;78.48;100041.03;5026501;28;19960;-73
2023/10/06 04:47:43;;;;;;;;;;;;;;;12.81;77.83;100051.34;5013765;28;20000;-73
2023/10/06 04:50:09;;;;;;;;;;;;;;;12.91;77.09;100036.94;5011298;28;19928;-72
2023/10/06 04:52:35;;;;;;;;;;;;;;;13.25;76.57;100056.75;5013454;28;19918;-73
2023/10/06 04:55:03;;;;;;;;;;;;;;;13.49;75.86;100060.94;5013233;28;20280;-75
2023/10/06 04:57:28;;;;;;;;;;;;;;;13.64;75.61;100056.72;5014838;28;19918;-72
2023/10/06 04:59:53;;;;;;;;;;;;;;;13.60;76.25;100058.56;5013374;28;19924;-73
2023/10/06 05:02:21;;;;;;;;;;;;;;;13.66;76.02;100051.56;5012986;28;19929;-71
2023/10/06 05:04:47;;;;;;;;;;;;;;;13.76;76.17;100058.81;5009339;28;20394;-74
2023/10/06 05:07:12;;;;;;;;;;;;;;;13.93;75.80;100063.44;5011335;28;19917;-74
2023/10/06 05:09:40;;;;;;;;;;;;;;;14.14;75.09;100069.06;5009505;28;19921;-71
2023/10/06 05:12:05;;;;;;;;;;;;;;;14.15;74.96;100067.06;5010049;28;19952;-77
2023/10/06 05:14:34;;;;;;;;;;;;;;;14.14;75.74;100076.66;5010388;28;20380;-74
2023/10/06 05:16:59;;;;;;;;;;;;;;;14.06;75.87;100075.59;5010905;28;19948;-71
2023/10/06 05:19:24;;;;;;;;;;;;;;;14.03;75.81;100077.09;5008274;28;20396;-73
2023/10/06 05:21:52;;;;;;;;;;;;;;;13.93;75.76;100076.69;5006730;28;19928;-76
2023/10/06 05:24:17;;;;;;;;;;;;;;;14.04;75.94;100075.09;5027564;28;19921;-75
2023/10/06 05:26:43;;;;;;;;;;;;;;;14.18;74.93;100077.66;5011098;28;19921;-76
2023/10/06 05:29:11;;;;;;;;;;;;;;;14.22;75.14;100072.97;5005368;28;19977;-73
2023/10/06 05:31:37;;;;;;;;;;;;;;;14.26;75.08;100073.09;4998785;28;19917;-77
2023/10/06 05:34:04;;;;;;;;;;;;;;;14.39;74.95;100076.78;5012873;28;20355;-77
2023/10/06 05:36:31;;;;;;;;;;;;;;;14.52;74.17;100081.25;5010279;28;19917;-77
2023/10/06 05:38:56;;;;;;;;;;;;;;;14.58;73.98;100074.25;5012313;28;20008;-77
2023/10/06 05:41:21;;;;;;;;;;;;;;;14.76;73.38;100071.28;5011416;28;20348;-77
2023/10/06 05:43:48;;;;;;;;;;;;;;;14.73;73.41;100078.44;5002625;28;19917;-77
2023/10/06 05:46:14;;;;;;;;;;;;;;;14.81;73.66;100073.03;5012315;28;20419;-77
2023/10/06 05:48:41;;;;;;;;;;;;;;;15.02;73.20;100076.59;5009647;28;19918;-77
2023/10/06 05:51:10;;;;;;;;;;;;;;;15.15;72.94;100073.78;5008495;28;20340;-76
2023/10/06 05:53:42;;;;;;;;;;;;;;;15.38;72.17;100073.31;5011638;28;19922;-77
2023/10/06 05:56:08;;;;;;;;;;;;;;;15.51;71.88;100071.31;5012077;28;20200;-77
2023/10/06 05:58:34;;;;;;;;;;;;;;;15.67;71.29;100069.41;5012683;28;20292;-77
2023/10/06 06:01:06;;;;;;;;;;;;;;;15.88;70.47;100076.06;5012252;28;19914;-76
2023/10/06 06:03:31;;;;;;;;;;;;;;;16.04;70.09;100074.16;5011772;28;19917;-77
2023/10/06 06:06:02;;;;;;;;;;;;;;;16.22;69.03;100074.69;5011317;28;20380;-77
2023/10/06 06:08:30;;;;;;;;;;;;;;;16.48;68.05;100072.56;5011742;28;19996;-77
2023/10/06 06:10:55;;;;;;;;;;;;;;;16.59;67.15;100073.69;5011033;28;19976;-77
2023/10/06 06:13:21;;;;;;;;;;;;;;;16.74;66.89;100082.56;5010183;28;19930;-76
2023/10/06 06:15:48;;;;;;;;;;;;;;;16.85;66.62;100075.19;5007444;28;19917;-76
2023/10/06 06:18:13;;;;;;;;;;;;;;;16.86;65.92;100081.66;5011824;28;20001;-76
2023/10/06 06:20:41;;;;;;;;;;;;;;;17.05;64.83;100069.69;4994152;28;19917;-76
2023/10/06 06:23:08;;;;;;;;;;;;;;;17.07;64.20;100085.06;4992807;28;19922;-76
2023/10/06 06:25:36;;;;;;;;;;;;;;;17.22;63.92;100085.44;5015078;28;19914;-76
2023/10/06 06:28:01;;;;;;;;;;;;;;;17.31;63.31;100079.59;4991511;28;20387;-76
2023/10/06 06:30:26;;;;;;;;;;;;;;;17.44;62.69;100080.31;4998352;28;19921;-76
2023/10/06 06:32:52;;;;;;;;;;;;;;;17.36;62.73;100080.13;5010245;28;20016;-76
2023/10/06 06:35:22;;;;;;;;;;;;;;;17.37;63.11;100087.44;5027157;28;19925;-77
2023/10/06 06:37:51;;;;;;;;;;;;;;;17.42;63.26;100088.31;5012098;28;19913;-81
2023/10/06 06:40:16;;;;;;;;;;;;;;;17.62;62.78;100084.38;5027390;28;20020;-81
2023/10/06 06:42:41;;;;;;;;;;;;;;;17.74;62.34;100083.44;5011659;28;20025;-81
2023/10/06 06:45:07;;;;;;;;;;;;;;;17.77;62.61;100085.53;5010501;28;20018;-81
2023/10/06 06:47:32;;;;;;;;;;;;;;;17.80;62.40;100087.63;5011628;28;19930;-76
2023/10/06 06:50:00;;;;;;;;;;;;;;;17.81;61.49;100094.09;5011867;28;19913;-76
2023/10/06 06:52:25;;;;;;;;;;;;;;;17.67;61.03;100089.72;5011915;28;19991;-76
2023/10/06 06:54:50;;;;;;;;;;;;;;;17.60;61.86;100097.25;5012032;28;19975;-76
2023/10/06 06:57:16;;;;;;;;;;;;;;;17.65;61.58;100085.66;5009942;28;19917;-76
2023/10/06 06:59:42;;;;;;;;;;;;;;;17.65;61.64;100088.47;5002698;28;19924;-75
2023/10/06 07:02:09;;;;;;;;;;;;;;;17.70;61.09;100087.38;5010488;28;19972;-77
2023/10/06 07:04:35;;;;;;;;;;;;;;;17.80;61.06;100093.28;5013225;28;20011;-78
2023/10/06 07:07:01;;;;;;;;;;;;;;;17.79;62.04;100085.16;5022630;28;20039;-74
2023/10/06 07:09:27;;;;;;;;;;;;;;;17.53;63.91;100095.91;5030657;28;19924;-72
2023/10/06 07:11:54;;;;;;;;;;;;;;;17.16;65.91;100087.72;5023823;28;19924;-74
2023/10/06 07:14:20;;;;;;;;;;;;;;;17.04;66.41;100093.47;5011345;28;20020;-75
2023/10/06 07:16:47;;;;;;;;;;;;;;;17.06;66.60;100094.72;5005998;28;20005;-76
2023/10/06 07:19:14;;;;;;;;;;;;;;;17.33;65.87;100091.34;5014616;28;19945;-77
2023/10/06 07:21:40;;;;;;;;;;;;;;;17.57;65.31;100096.00;5010270;28;20447;-77
2023/10/06 07:24:05;;;;;;;;;;;;;;;17.83;64.57;100091.72;5010229;28;19997;-79
2023/10/06 07:26:31;;;;;;;;;;;;;;;18.00;63.33;100098.13;5013125;28;20320;-77
2023/10/06 07:28:58;;;;;;;;;;;;;;;18.17;62.54;100088.44;5012280;28;19928;-78
2023/10/06 07:31:26;;;;;;;;;;;;;;;18.30;61.62;100092.75;5014707;28;19918;-78
2023/10/06 07:33:52;;;;;;;;;;;;;;;18.54;60.19;100085.13;5011002;28;20422;-78
2023/10/06 07:36:17;;;;;;;;;;;;;;;18.80;58.47;100087.25;5011478;28;19956;-78
2023/10/06 07:38:43;;;;;;;;;;;;;;;18.93;56.47;100087.88;5012650;28;19952;-77
2023/10/06 07:41:16;;;;;;;;;;;;;;;18.94;56.32;100086.72;5013411;28;20342;-73
2023/10/06 07:43:41;;;;;;;;;;;;;;;18.91;56.71;100095.94;5014802;28;19921;-72
2023/10/06 07:46:10;;;;;;;;;;;;;;;19.11;56.81;100089.41;5014855;28;19978;-70
2023/10/06 07:48:36;;;;;;;;;;;;;;;19.12;56.60;100089.06;5016207;28;19917;-72
2023/10/06 07:51:06;;;;;;;;;;;;;;;19.20;57.47;100088.00;5009369;28;19918;-70
2023/10/06 07:53:31;;;;;;;;;;;;;;;19.27;56.97;100080.78;5011400;28;19920;-71
2023/10/06 07:56:06;;;;;;;;;;;;;;;19.43;56.94;100074.97;5010154;28;19914;-73
2023/10/06 07:58:32;;;;;;;;;;;;;;;19.53;56.51;100074.31;5011807;28;19945;-73
2023/10/06 08:00:57;;;;;;;;;;;;;;;19.75;56.07;100074.63;5007657;28;19960;-73
2023/10/06 08:03:22;;;;;;;;;;;;;;;20.02;55.57;100064.06;5013432;28;19917;-72
2023/10/06 08:05:48;;;;;;;;;;;;;;;20.02;55.54;100075.44;5011618;28;20427;-71
2023/10/06 08:08:13;;;;;;;;;;;;;;;19.96;54.63;100071.31;5011181;28;19918;-71
2023/10/06 08:10:39;;;;;;;;;;;;;;;19.84;55.11;100071.50;5011164;28;19917;-73
2023/10/06 08:13:04;;;;;;;;;;;;;;;19.84;54.47;100068.69;5028005;28;19921;-72
2023/10/06 08:15:32;;;;;;;;;;;;;;;20.10;54.26;100059.34;5027208;28;20400;-72
2023/10/06 08:17:57;;;;;;;;;;;;;;;20.22;53.94;100066.75;5011152;28;19972;-73
2023/10/06 08:20:24;;;;;;;;;;;;;;;20.22;53.61;100063.13;5011799;28;19999;-72
2023/10/06 08:22:50;;;;;;;;;;;;;;;20.20;53.18;100069.97;5012974;28;19921;-72
2023/10/06 08:25:15;;;;;;;;;;;;;;;20.19;53.07;100070.38;5012152;28;19921;-72
2023/10/06 08:27:44;;;;;;;;;;;;;;;20.22;52.86;100061.09;5005479;28;19918;-72
2023/10/06 08:30:16;;;;;;;;;;;;;;;20.37;52.44;100064.09;5014774;28;19924;-72
2023/10/06 08:32:42;;;;;;;;;;;;;;;20.51;52.85;100061.41;5010530;28;19937;-72
2023/10/06 08:35:13;;;;;;;;;;;;;;;20.67;52.27;100063.22;5028178;28;19921;-71
2023/10/06 08:37:39;;;;;;;;;;;;;;;21.03;51.46;100063.59;5006666;28;19962;-73
2023/10/06 08:40:07;;;;;;;;;;;;;;;21.18;51.35;100053.97;5005763;28;19928;-73
2023/10/06 08:42:34;;;;;;;;;;;;;;;21.38;50.73;100053.72;5008940;28;19995;-72
2023/10/06 08:45:00;;;;;;;;;;;;;;;21.48;50.01;100059.84;5011462;28;19948;-73
2023/10/06 08:47:26;;;;;;;;;;;;;;;21.49;50.40;100050.94;5009483;28;19926;-72
2023/10/06 08:49:53;;;;;;;;;;;;;;;21.81;49.84;100050.34;5028905;28;19924;-72
2023/10/06 08:52:22;;;;;;;;;;;;;;;21.96;49.52;100059.81;5015705;28;20446;-72
2023/10/06 08:54:48;;;;;;;;;;;;;;;22.28;48.98;100053.41;5005377;28;19994;-72
2023/10/06 08:57:13;;;;;;;;;;;;;;;22.23;48.54;100042.41;5006140;28;19924;-72
2023/10/06 08:59:39;;;;;;;;;;;;;;;22.45;48.33;100045.34;5011048;28;20024;-76
2023/10/06 09:02:04;;;;;;;;;;;;;;;22.40;47.56;100046.53;5010865;28;20420;-72
2023/10/06 09:04:34;;;;;;;;;;;;;;;22.51;47.51;100040.88;5012382;28;20011;-72
2023/10/06 09:07:08;;;;;;;;;;;;;;;22.66;47.07;100043.75;5020572;28;19918;-72
2023/10/06 09:09:33;;;;;;;;;;;;;;;22.81;46.32;100045.44;5013050;28;20492;-69
2023/10/06 09:11:58;;;;;;;;;;;;;;;22.63;46.37;100036.03;5011538;28;19922;-73
2023/10/06 09:14:25;;;;;;;;;;;;;;;22.91;46.70;100045.84;5016441;28;19921;-72
2023/10/06 09:16:50;;;;;;;;;;;;;;;22.85;45.79;100034.00;5009636;28;19921;-71
2023/10/06 09:19:17;;;;;;;;;;;;;;;22.98;45.22;100031.59;5013975;28;19997;-71
2023/10/06 09:22:02;;;;;;;;;;;;;;;23.04;45.45;100035.66;5013589;28;19925;-71
2023/10/06 09:24:27;;;;;;;;;;;;;;;23.11;45.60;100029.94;5011002;28;19918;-71
2023/10/06 09:26:53;;;;;;;;;;;;;;;23.09;45.84;100035.25;5013357;28;20312;-73
2023/10/06 09:29:36;;;;;;;;;;;;;;;22.95;46.11;100023.84;5016637;28;19948;-76
2023/10/06 09:32:19;;;;;;;;;;;;;;;23.19;46.35;100027.91;5005652;28;19940;-74
2023/10/06 09:34:44;;;;;;;;;;;;;;;23.17;45.93;100020.97;4994336;28;20077;-70
2023/10/06 09:37:17;;;;;;;;;;;;;;;23.31;45.84;100021.00;5008271;28;20509;-71
2023/10/06 09:39:45;;;;;;;;;;;;;;;23.16;46.57;100013.63;5008285;28;19917;-71
2023/10/06 09:42:13;;;;;;;;;;;;;;;23.28;45.93;100011.22;5008232;28;19922;-70
2023/10/06 09:44:40;;;;;;;;;;;;;;;23.53;45.68;100018.94;5024528;28;20363;-71
2023/10/06 09:47:08;;;;;;;;;;;;;;;23.74;44.89;100005.81;5010655;28;19918;-72
2023/10/06 09:49:37;;;;;;;;;;;;;;;23.90;44.67;100002.50;5004180;28;19966;-72
2023/10/06 09:52:05;;;;;;;;;;;;;;;24.06;44.14;100007.75;5008773;28;20343;-72
2023/10/06 09:54:31;;;;;;;;;;;;;;;23.72;44.54;100004.59;5011474;28;19914;-72
2023/10/06 09:56:56;;;;;;;;;;;;;;;23.59;44.82;99996.47;5005886;28;19928;-73
2023/10/06 09:59:22;;;;;;;;;;;;;;;23.78;44.32;99989.47;5008972;28;19924;-75
2023/10/06 10:01:48;;;;;;;;;;;;;;;23.88;44.59;99992.72;5025493;28;19918;-75
2023/10/06 10:04:16;;;;;;;;;;;;;;;24.07;43.96;99982.88;5007537;28;19980;-73
2023/10/06 10:06:45;;;;;;;;;;;;;;;23.84;43.52;99981.31;5008599;28;19917;-75
2023/10/06 10:09:16;;;;;;;;;;;;;;;23.69;43.77;99981.38;5005426;28;19926;-72
2023/10/06 10:11:52;;;;;;;;;;;;;;;23.73;44.21;99974.81;5014950;28;19921;-74
2023/10/06 10:14:37;;;;;;;;;;;;;;;24.08;43.58;99964.50;5004292;28;19929;-75
2023/10/06 10:17:19;;;;;;;;;;;;;;;23.78;43.67;99968.69;5013126;28;19928;-75
2023/10/06 10:19:46;;;;;;;;;;;;;;;24.11;43.85;99958.78;5006701;28;20378;-75
2023/10/06 10:22:13;;;;;;;;;;;;;;;24.12;43.66;99962.41;5008922;28;19928;-77
2023/10/06 10:24:39;;;;;;;;;;;;;;;24.25;43.42;99949.31;5006344;28;19917;-83
2023/10/06 10:27:12;;;;;;;;;;;;;;;24.32;42.89;99947.63;5008676;28;20032;-83
2023/10/06 10:29:44;;;;;;;;;;;;;;;24.56;42.57;99950.72;5011943;28;20008;-79
2023/10/06 10:32:22;;;;;;;;;;;;;;;24.44;43.12;99944.25;5010112;28;20059;-78
2023/10/06 10:35:12;;;;;;;;;;;;;;;24.48;42.64;99927.88;5009998;28;20017;-78
2023/10/06 10:37:56;;;;;;;;;;;;;;;24.33;41.32;99935.78;5004839;28;20319;-78
2023/10/06 10:40:26;;;;;;;;;;;;;;;24.18;41.77;99932.19;5010798;28;20371;-78
2023/10/06 10:43:00;;;;;;;;;;;;;;;24.33;42.01;99926.38;5008445;28;19944;-78
2023/10/06 10:45:34;;;;;;;;;;;;;;;23.94;42.19;99920.47;5010775;28;20362;-78
2023/10/06 10:47:59;;;;;;;;;;;;;;;24.14;42.06;99916.31;5007144;28;19928;-78
2023/10/06 10:50:48;;;;;;;;;;;;;;;24.39;41.69;99913.28;5005427;28;19918;-78
2023/10/06 10:53:17;;;;;;;;;;;;;;;24.55;41.53;99909.88;5007906;28;19924;-78
2023/10/06 10:55:43;;;;;;;;;;;;;;;24.53;40.73;99903.75;5006029;28;19917;-78
2023/10/06 10:58:09;;;;;;;;;;;;;;;24.67;41.12;99897.13;5010156;28;19917;-78
2023/10/06 11:00:34;;;;;;;;;;;;;;;25.00;41.17;99897.66;5010472;28;19925;-78
2023/10/06 11:03:04;;;;;;;;;;;;;;;25.20;40.77;99892.13;5024924;28;19921;-78
2023/10/06 11:05:31;;;;;;;;;;;;;;;25.44;39.86;99898.00;5024000;28;20372;-78
2023/10/06 11:08:01;;;;;;;;;;;;;;;25.24;39.86;99887.16;5025143;28;19928;-78
2023/10/06 11:10:27;;;;;;;;;;;;;;;25.14;40.63;99887.31;5004185;28;19921;-78
2023/10/06 11:13:11;;;;;;;;;;;;;;;25.17;37.45;99893.00;5012842;28;20297;-78
2023/10/06 11:15:37;;;;;;;;;;;;;;;25.07;36.90;99889.00;4998191;28;19967;-78
2023/10/06 11:18:05;;;;;;;;;;;;;;;24.94;36.98;99880.16;5006820;28;20306;-79
2023/10/06 11:20:36;;;;;;;;;;;;;;;25.15;36.17;99880.34;5012130;28;19918;-78
2023/10/06 11:23:03;;;;;;;;;;;;;;;24.84;35.30;99881.06;5002164;28;19922;-78
2023/10/06 11:25:29;;;;;;;;;;;;;;;25.14;35.36;99873.78;5005722;28;19957;-78
2023/10/06 11:27:58;;;;;;;;;;;;;;;25.33;35.88;99872.34;5005105;28;19921;-78
2023/10/06 11:30:25;;;;;;;;;;;;;;;25.72;35.06;99872.31;5024382;28;19924;-78
2023/10/06 11:32:51;;;;;;;;;;;;;;;25.24;35.04;99858.53;5007777;28;19979;-78
2023/10/06 11:35:17;;;;;;;;;;;;;;;25.10;35.42;99864.44;5009647;28;20387;-78
2023/10/06 11:37:44;;;;;;;;;;;;;;;25.07;35.04;99862.44;5014965;28;19917;-78
2023/10/06 11:40:12;;;;;;;;;;;;;;;25.14;35.38;99858.69;5029074;28;19917;-78
2023/10/06 11:42:40;;;;;;;;;;;;;;;25.30;34.96;99864.63;5011472;28;19928;-78
2023/10/06 11:45:21;;;;;;;;;;;;;;;25.38;34.61;99860.44;5013340;28;19926;-79
2023/10/06 11:47:46;;;;;;;;;;;;;;;25.45;34.51;99855.84;5011964;28;20388;-78
2023/10/06 11:50:20;;;;;;;;;;;;;;;25.52;34.25;99855.78;5011305;28;19927;-78
2023/10/06 11:52:45;;;;;;;;;;;;;;;25.48;33.96;99849.28;5007987;28;19938;-79
2023/10/06 11:55:14;;;;;;;;;;;;;;;25.42;34.59;99848.94;5011486;28;20021;-79
2023/10/06 11:57:47;;;;;;;;;;;;;;;25.50;34.41;99855.41;5010446;28;19926;-79
2023/10/06 12:00:12;;;;;;;;;;;;;;;25.46;34.21;99846.84;4991559;28;20019;-79
2023/10/06 12:02:49;;;;;;;;;;;;;;;25.37;35.04;99841.63;5011875;28;20439;-79
2023/10/06 12:05:16;;;;;;;;;;;;;;;25.35;34.67;99843.31;5011098;28;19921;-78
2023/10/06 12:07:42;;;;;;;;;;;;;;;25.37;34.63;99846.53;5008946;28;19924;-78
2023/10/06 12:10:08;;;;;;;;;;;;;;;25.50;34.50;99841.91;5009718;28;19918;-78
2023/10/06 12:12:34;;;;;;;;;;;;;;;25.40;34.73;99831.38;5013864;28;19933;-78
2023/10/06 12:14:59;;;;;;;;;;;;;;;25.61;34.58;99836.03;5007123;28;19917;-73
2023/10/06 12:17:27;;;;;;;;;;;;;;;25.57;34.14;99823.81;5007591;28;19921;-74
2023/10/06 12:19:52;;;;;;;;;;;;;;;25.55;34.70;99831.22;5007660;28;20008;-75
2023/10/06 12:22:18;;;;;;;;;;;;;;;25.60;34.27;99837.28;5006566;28;20364;-74
2023/10/06 12:24:45;;;;;;;;;;;;;;;25.56;33.49;99827.91;5008206;28;19925;-74
2023/10/06 12:27:10;;;;;;;;;;;;;;;25.63;33.78;99827.81;5008105;28;19922;-75
2023/10/06 12:29:36;;;;;;;;;;;;;;;25.54;33.84;99829.59;5011043;28;19928;-74
2023/10/06 12:32:02;;;;;;;;;;;;;;;25.72;32.92;99817.91;5008914;28;19922;-77
2023/10/06 12:34:27;;;;;;;;;;;;;;;25.37;33.49;99833.06;5012889;28;19918;-77
2023/10/06 12:37:01;;;;;;;;;;;;;;;25.52;33.33;99827.16;5025702;28;19917;-77
2023/10/06 12:39:33;;;;;;;;;;;;;;;25.53;33.70;99825.91;5013706;28;20408;-75
2023/10/06 12:41:59;;;;;;;;;;;;;;;25.33;34.40;99826.53;5012121;28;19922;-75
2023/10/06 12:44:27;;;;;;;;;;;;;;;25.43;34.57;99816.22;5009815;28;20379;-78
2023/10/06 12:46:55;;;;;;;;;;;;;;;25.22;34.41;99829.56;5010524;28;19914;-79
2023/10/06 12:49:21;;;;;;;;;;;;;;;25.33;34.64;99820.81;5013277;28;20015;-78
2023/10/06 12:51:46;;;;;;;;;;;;;;;25.49;34.52;99828.03;5026817;28;19925;-78
2023/10/06 12:54:14;;;;;;;;;;;;;;;25.44;34.54;99825.59;5027672;28;19975;-78
2023/10/06 12:56:43;;;;;;;;;;;;;;;25.43;34.55;99821.13;5008433;28;20072;-75